sensor_id;sensor_type;location;lat;lon;timestamp;temperature;humidity
61386;DHT22;47256;18.904;-99.054;2023-12-04T00:01:28;26.00;99.90
61386;DHT22;47256;18.904;-99.054;2023-12-04T00:03:55;26.00;99.90
61386;DHT22;47256;18.904;-99.054;2023-12-04T00:06:23;25.90;99.90
61386;DHT22;47256;18.904;-99.054;2023-12-04T00:08:50;25.90;99.90
61386;DHT22;47256;18.904;-99.054;2023-12-04T00:11:18;25.80;99.90
61386;DHT22;47256;18.904;-99.054;2023-12-04T00:13:45;25.80;99.90
61386;DHT22;47256;18.904;-99.054;2023-12-04T00:16:12;25.70;99.90
61386;DHT22;47256;18.904;-99.054;2023-12-04T00:18:39;25.70;99.90
61386;DHT22;47256;18.904;-99.054;2023-12-04T00:21:08;25.60;99.90
61386;DHT22;47256;18.904;-99.054;2023-12-04T00:23:35;25.60;99.90
61386;DHT22;47256;18.904;-99.054;2023-12-04T00:26:02;25.60;99.90
61386;DHT22;47256;18.904;-99.054;2023-12-04T00:28:31;25.50;99.90
61386;DHT22;47256;18.904;-99.054;2023-12-04T00:30:59;25.40;99.90
61386;DHT22;47256;18.904;-99.054;2023-12-04T00:33:26;25.40;99.90
61386;DHT22;47256;18.904;-99.054;2023-12-04T00:35:53;25.40;99.90
61386;DHT22;47256;18.904;-99.054;2023-12-04T00:38:21;25.30;99.90
61386;DHT22;47256;18.904;-99.054;2023-12-04T00:40:48;25.30;99.90
61386;DHT22;47256;18.904;-99.054;2023-12-04T00:43:15;25.20;99.90
61386;DHT22;47256;18.904;-99.054;2023-12-04T00:45:43;25.20;99.90
61386;DHT22;47256;18.904;-99.054;2023-12-04T00:48:10;25.10;99.90
61386;DHT22;47256;18.904;-99.054;2023-12-04T00:50:38;25.00;99.90
61386;DHT22;47256;18.904;-99.054;2023-12-04T00:53:05;24.90;99.90
61386;DHT22;47256;18.904;-99.054;2023-12-04T00:55:33;24.80;99.90
61386;DHT22;47256;18.904;-99.054;2023-12-04T00:58:00;24.80;99.90
61386;DHT22;47256;18.904;-99.054;2023-12-04T01:00:29;24.80;99.90
61386;DHT22;47256;18.904;-99.054;2023-12-04T01:02:56;24.80;99.90
61386;DHT22;47256;18.904;-99.054;2023-12-04T01:05:24;24.80;99.90
61386;DHT22;47256;18.904;-99.054;2023-12-04T01:07:52;24.80;99.90
61386;DHT22;47256;18.904;-99.054;2023-12-04T01:10:20;24.70;99.90
61386;DHT22;47256;18.904;-99.054;2023-12-04T01:12:47;24.60;99.90
61386;DHT22;47256;18.904;-99.054;2023-12-04T01:15:15;24.60;99.90
61386;DHT22;47256;18.904;-99.054;2023-12-04T01:17:42;24.40;99.90
61386;DHT22;47256;18.904;-99.054;2023-12-04T01:20:11;24.40;99.90
61386;DHT22;47256;18.904;-99.054;2023-12-04T01:22:38;24.40;99.90
61386;DHT22;47256;18.904;-99.054;2023-12-04T01:25:05;24.40;99.90
61386;DHT22;47256;18.904;-99.054;2023-12-04T01:27:33;24.40;99.90
61386;DHT22;47256;18.904;-99.054;2023-12-04T01:30:02;24.40;99.90
61386;DHT22;47256;18.904;-99.054;2023-12-04T01:32:29;24.40;99.90
61386;DHT22;47256;18.904;-99.054;2023-12-04T01:34:57;24.40;99.90
61386;DHT22;47256;18.904;-99.054;2023-12-04T01:37:24;24.40;99.90
61386;DHT22;47256;18.904;-99.054;2023-12-04T01:39:53;24.40;99.90
61386;DHT22;47256;18.904;-99.054;2023-12-04T01:42:20;24.40;99.90
61386;DHT22;47256;18.904;-99.054;2023-12-04T01:44:48;24.40;99.90
61386;DHT22;47256;18.904;-99.054;2023-12-04T01:47:15;24.30;99.90
61386;DHT22;47256;18.904;-99.054;2023-12-04T01:49:44;24.30;99.90
61386;DHT22;47256;18.904;-99.054;2023-12-04T01:52:11;24.20;99.90
61386;DHT22;47256;18.904;-99.054;2023-12-04T01:54:40;24.10;99.90
61386;DHT22;47256;18.904;-99.054;2023-12-04T01:57:07;24.10;99.90
61386;DHT22;47256;18.904;-99.054;2023-12-04T01:59:36;24.00;99.90
61386;DHT22;47256;18.904;-99.054;2023-12-04T02:02:04;24.00;99.90
61386;DHT22;47256;18.904;-99.054;2023-12-04T02:04:32;24.00;99.90
61386;DHT22;47256;18.904;-99.054;2023-12-04T02:07:00;24.00;99.90
61386;DHT22;47256;18.904;-99.054;2023-12-04T02:09:27;24.00;99.90
61386;DHT22;47256;18.904;-99.054;2023-12-04T02:11:54;24.10;99.90
61386;DHT22;47256;18.904;-99.054;2023-12-04T02:14:23;24.10;99.90
61386;DHT22;47256;18.904;-99.054;2023-12-04T02:16:51;24.10;99.90
61386;DHT22;47256;18.904;-99.054;2023-12-04T02:19:25;24.10;99.90
61386;DHT22;47256;18.904;-99.054;2023-12-04T02:21:52;24.10;99.90
61386;DHT22;47256;18.904;-99.054;2023-12-04T02:24:20;24.00;99.90
61386;DHT22;47256;18.904;-99.054;2023-12-04T02:26:56;24.00;99.90
61386;DHT22;47256;18.904;-99.054;2023-12-04T02:29:44;24.00;99.90
61386;DHT22;47256;18.904;-99.054;2023-12-04T02:32:16;24.10;99.90
61386;DHT22;47256;18.904;-99.054;2023-12-04T02:34:47;24.10;99.90
61386;DHT22;47256;18.904;-99.054;2023-12-04T02:37:15;24.10;99.90
61386;DHT22;47256;18.904;-99.054;2023-12-04T02:39:44;24.00;99.90
61386;DHT22;47256;18.904;-99.054;2023-12-04T02:42:13;24.00;99.90
61386;DHT22;47256;18.904;-99.054;2023-12-04T02:44:40;24.10;99.90
61386;DHT22;47256;18.904;-99.054;2023-12-04T02:47:08;24.00;99.90
61386;DHT22;47256;18.904;-99.054;2023-12-04T02:49:36;24.00;99.90
61386;DHT22;47256;18.904;-99.054;2023-12-04T02:52:04;24.00;99.90
61386;DHT22;47256;18.904;-99.054;2023-12-04T02:54:32;23.90;99.90
61386;DHT22;47256;18.904;-99.054;2023-12-04T02:56:59;23.90;99.90
61386;DHT22;47256;18.904;-99.054;2023-12-04T02:59:27;23.90;99.90
61386;DHT22;47256;18.904;-99.054;2023-12-04T03:01:55;23.90;99.90
61386;DHT22;47256;18.904;-99.054;2023-12-04T03:04:22;23.90;99.90
61386;DHT22;47256;18.904;-99.054;2023-12-04T03:06:49;24.00;99.90
61386;DHT22;47256;18.904;-99.054;2023-12-04T03:09:17;23.90;99.90
61386;DHT22;47256;18.904;-99.054;2023-12-04T03:11:44;23.90;99.90
61386;DHT22;47256;18.904;-99.054;2023-12-04T03:14:12;23.90;99.90
61386;DHT22;47256;18.904;-99.054;2023-12-04T03:16:40;23.80;99.90
61386;DHT22;47256;18.904;-99.054;2023-12-04T03:19:08;23.80;99.90
61386;DHT22;47256;18.904;-99.054;2023-12-04T03:21:36;23.70;99.90
61386;DHT22;47256;18.904;-99.054;2023-12-04T03:24:04;23.70;99.90
61386;DHT22;47256;18.904;-99.054;2023-12-04T03:26:37;23.60;99.90
61386;DHT22;47256;18.904;-99.054;2023-12-04T03:29:04;23.50;99.90
61386;DHT22;47256;18.904;-99.054;2023-12-04T03:31:31;23.50;99.90
61386;DHT22;47256;18.904;-99.054;2023-12-04T03:34:00;23.40;99.90
61386;DHT22;47256;18.904;-99.054;2023-12-04T03:36:28;23.40;99.90
61386;DHT22;47256;18.904;-99.054;2023-12-04T03:38:55;23.40;99.90
61386;DHT22;47256;18.904;-99.054;2023-12-04T03:41:22;23.50;99.90
61386;DHT22;47256;18.904;-99.054;2023-12-04T03:43:49;23.50;99.90
61386;DHT22;47256;18.904;-99.054;2023-12-04T03:46:16;23.50;99.90
61386;DHT22;47256;18.904;-99.054;2023-12-04T03:48:45;23.50;99.90
61386;DHT22;47256;18.904;-99.054;2023-12-04T03:51:13;23.50;99.90
61386;DHT22;47256;18.904;-99.054;2023-12-04T03:53:40;23.40;99.90
61386;DHT22;47256;18.904;-99.054;2023-12-04T03:56:10;23.40;99.90
61386;DHT22;47256;18.904;-99.054;2023-12-04T03:58:39;23.40;99.90
61386;DHT22;47256;18.904;-99.054;2023-12-04T04:01:14;23.40;99.90
61386;DHT22;47256;18.904;-99.054;2023-12-04T04:03:41;23.50;99.90
61386;DHT22;47256;18.904;-99.054;2023-12-04T04:06:09;23.50;99.90
61386;DHT22;47256;18.904;-99.054;2023-12-04T04:08:36;23.50;99.90
61386;DHT22;47256;18.904;-99.054;2023-12-04T04:11:04;23.40;99.90
61386;DHT22;47256;18.904;-99.054;2023-12-04T04:13:31;23.30;99.90
61386;DHT22;47256;18.904;-99.054;2023-12-04T04:15:58;23.30;99.90
61386;DHT22;47256;18.904;-99.054;2023-12-04T04:18:26;23.30;99.90
61386;DHT22;47256;18.904;-99.054;2023-12-04T04:20:54;23.40;99.90
61386;DHT22;47256;18.904;-99.054;2023-12-04T04:23:21;23.30;99.90
61386;DHT22;47256;18.904;-99.054;2023-12-04T04:25:49;23.30;99.90
61386;DHT22;47256;18.904;-99.054;2023-12-04T04:28:16;23.30;99.90
61386;DHT22;47256;18.904;-99.054;2023-12-04T04:30:44;23.30;99.90
61386;DHT22;47256;18.904;-99.054;2023-12-04T04:33:11;23.30;99.90
61386;DHT22;47256;18.904;-99.054;2023-12-04T04:35:38;23.30;99.90
61386;DHT22;47256;18.904;-99.054;2023-12-04T04:38:06;23.30;99.90
61386;DHT22;47256;18.904;-99.054;2023-12-04T04:40:33;23.40;99.90
61386;DHT22;47256;18.904;-99.054;2023-12-04T04:43:00;23.40;99.90
61386;DHT22;47256;18.904;-99.054;2023-12-04T04:45:28;23.40;99.90
61386;DHT22;47256;18.904;-99.054;2023-12-04T04:47:55;23.40;99.90
61386;DHT22;47256;18.904;-99.054;2023-12-04T04:50:23;23.30;99.90
61386;DHT22;47256;18.904;-99.054;2023-12-04T04:52:50;23.40;99.90
61386;DHT22;47256;18.904;-99.054;2023-12-04T04:55:18;23.30;99.90
61386;DHT22;47256;18.904;-99.054;2023-12-04T04:57:45;23.30;99.90
61386;DHT22;47256;18.904;-99.054;2023-12-04T05:00:18;23.30;99.90
61386;DHT22;47256;18.904;-99.054;2023-12-04T05:02:46;23.20;99.90
61386;DHT22;47256;18.904;-99.054;2023-12-04T05:05:14;23.10;99.90
61386;DHT22;47256;18.904;-99.054;2023-12-04T05:07:42;23.10;99.90
61386;DHT22;47256;18.904;-99.054;2023-12-04T05:10:09;23.10;99.90
61386;DHT22;47256;18.904;-99.054;2023-12-04T05:12:37;23.00;99.90
61386;DHT22;47256;18.904;-99.054;2023-12-04T05:15:05;22.90;99.90
61386;DHT22;47256;18.904;-99.054;2023-12-04T05:17:33;22.70;99.90
61386;DHT22;47256;18.904;-99.054;2023-12-04T05:20:01;22.60;99.90
61386;DHT22;47256;18.904;-99.054;2023-12-04T05:22:29;22.50;99.90
61386;DHT22;47256;18.904;-99.054;2023-12-04T05:24:56;22.50;99.90
61386;DHT22;47256;18.904;-99.054;2023-12-04T05:27:23;22.50;99.90
61386;DHT22;47256;18.904;-99.054;2023-12-04T05:29:50;22.50;99.90
61386;DHT22;47256;18.904;-99.054;2023-12-04T05:32:18;22.50;99.90
61386;DHT22;47256;18.904;-99.054;2023-12-04T05:34:45;22.50;99.90
61386;DHT22;47256;18.904;-99.054;2023-12-04T05:37:12;22.50;99.90
61386;DHT22;47256;18.904;-99.054;2023-12-04T05:39:41;22.40;99.90
61386;DHT22;47256;18.904;-99.054;2023-12-04T05:42:09;22.30;99.90
61386;DHT22;47256;18.904;-99.054;2023-12-04T05:44:36;22.20;99.90
61386;DHT22;47256;18.904;-99.054;2023-12-04T05:47:04;22.10;99.90
61386;DHT22;47256;18.904;-99.054;2023-12-04T05:49:34;22.10;99.90
61386;DHT22;47256;18.904;-99.054;2023-12-04T05:52:02;22.00;99.90
61386;DHT22;47256;18.904;-99.054;2023-12-04T05:54:30;22.10;99.90
61386;DHT22;47256;18.904;-99.054;2023-12-04T05:56:57;22.20;99.90
61386;DHT22;47256;18.904;-99.054;2023-12-04T05:59:25;22.20;99.90
61386;DHT22;47256;18.904;-99.054;2023-12-04T06:01:53;22.30;99.90
61386;DHT22;47256;18.904;-99.054;2023-12-04T06:04:21;22.30;99.90
61386;DHT22;47256;18.904;-99.054;2023-12-04T06:06:49;22.40;99.90
61386;DHT22;47256;18.904;-99.054;2023-12-04T06:09:17;22.20;99.90
61386;DHT22;47256;18.904;-99.054;2023-12-04T06:11:45;22.20;99.90
61386;DHT22;47256;18.904;-99.054;2023-12-04T06:14:12;22.10;99.90
61386;DHT22;47256;18.904;-99.054;2023-12-04T06:16:39;22.20;99.90
61386;DHT22;47256;18.904;-99.054;2023-12-04T06:19:07;22.20;99.90
61386;DHT22;47256;18.904;-99.054;2023-12-04T06:21:35;22.20;99.90
61386;DHT22;47256;18.904;-99.054;2023-12-04T06:24:02;22.20;99.90
61386;DHT22;47256;18.904;-99.054;2023-12-04T06:26:31;22.20;99.90
61386;DHT22;47256;18.904;-99.054;2023-12-04T06:29:01;22.10;99.90
61386;DHT22;47256;18.904;-99.054;2023-12-04T06:31:29;22.10;99.90
61386;DHT22;47256;18.904;-99.054;2023-12-04T06:33:57;22.10;99.90
61386;DHT22;47256;18.904;-99.054;2023-12-04T06:36:25;22.10;99.90
61386;DHT22;47256;18.904;-99.054;2023-12-04T06:38:53;22.10;99.90
61386;DHT22;47256;18.904;-99.054;2023-12-04T06:41:20;22.00;99.90
61386;DHT22;47256;18.904;-99.054;2023-12-04T06:43:49;22.00;99.90
61386;DHT22;47256;18.904;-99.054;2023-12-04T06:46:17;22.00;99.90
61386;DHT22;47256;18.904;-99.054;2023-12-04T06:48:48;22.00;99.90
61386;DHT22;47256;18.904;-99.054;2023-12-04T06:51:17;22.10;99.90
61386;DHT22;47256;18.904;-99.054;2023-12-04T06:53:45;22.00;99.90
61386;DHT22;47256;18.904;-99.054;2023-12-04T06:56:12;22.00;99.90
61386;DHT22;47256;18.904;-99.054;2023-12-04T06:58:39;22.00;99.90
61386;DHT22;47256;18.904;-99.054;2023-12-04T07:01:07;22.00;99.90
61386;DHT22;47256;18.904;-99.054;2023-12-04T07:03:36;21.90;99.90
61386;DHT22;47256;18.904;-99.054;2023-12-04T07:06:03;21.80;99.90
61386;DHT22;47256;18.904;-99.054;2023-12-04T07:08:31;21.80;99.90
61386;DHT22;47256;18.904;-99.054;2023-12-04T07:10:58;21.80;99.90
61386;DHT22;47256;18.904;-99.054;2023-12-04T07:13:26;21.80;99.90
61386;DHT22;47256;18.904;-99.054;2023-12-04T07:15:53;21.80;99.90
61386;DHT22;47256;18.904;-99.054;2023-12-04T07:18:22;21.70;99.90
61386;DHT22;47256;18.904;-99.054;2023-12-04T07:20:49;21.70;99.90
61386;DHT22;47256;18.904;-99.054;2023-12-04T07:23:17;21.60;99.90
61386;DHT22;47256;18.904;-99.054;2023-12-04T07:25:44;21.60;99.90
61386;DHT22;47256;18.904;-99.054;2023-12-04T07:28:12;21.60;99.90
61386;DHT22;47256;18.904;-99.054;2023-12-04T07:30:40;21.60;99.90
61386;DHT22;47256;18.904;-99.054;2023-12-04T07:33:07;21.60;99.90
61386;DHT22;47256;18.904;-99.054;2023-12-04T07:35:35;21.50;99.90
61386;DHT22;47256;18.904;-99.054;2023-12-04T07:38:02;21.50;99.90
61386;DHT22;47256;18.904;-99.054;2023-12-04T07:40:30;21.50;99.90
61386;DHT22;47256;18.904;-99.054;2023-12-04T07:42:57;21.50;99.90
61386;DHT22;47256;18.904;-99.054;2023-12-04T07:45:24;21.50;99.90
61386;DHT22;47256;18.904;-99.054;2023-12-04T07:47:53;21.50;99.90
61386;DHT22;47256;18.904;-99.054;2023-12-04T07:50:22;21.50;99.90
61386;DHT22;47256;18.904;-99.054;2023-12-04T07:52:51;21.40;99.90
61386;DHT22;47256;18.904;-99.054;2023-12-04T07:55:19;21.30;99.90
61386;DHT22;47256;18.904;-99.054;2023-12-04T07:57:46;21.30;99.90
61386;DHT22;47256;18.904;-99.054;2023-12-04T08:00:14;21.30;99.90
61386;DHT22;47256;18.904;-99.054;2023-12-04T08:02:45;21.30;99.90
61386;DHT22;47256;18.904;-99.054;2023-12-04T08:05:13;21.30;99.90
61386;DHT22;47256;18.904;-99.054;2023-12-04T08:07:41;21.30;99.90
61386;DHT22;47256;18.904;-99.054;2023-12-04T08:10:08;21.40;99.90
61386;DHT22;47256;18.904;-99.054;2023-12-04T08:12:35;21.40;99.90
61386;DHT22;47256;18.904;-99.054;2023-12-04T08:15:04;21.40;99.90
61386;DHT22;47256;18.904;-99.054;2023-12-04T08:17:31;21.40;99.90
61386;DHT22;47256;18.904;-99.054;2023-12-04T08:20:00;21.40;99.90
61386;DHT22;47256;18.904;-99.054;2023-12-04T08:22:27;21.40;99.90
61386;DHT22;47256;18.904;-99.054;2023-12-04T08:24:55;21.30;99.90
61386;DHT22;47256;18.904;-99.054;2023-12-04T08:27:25;21.20;99.90
61386;DHT22;47256;18.904;-99.054;2023-12-04T08:29:52;21.30;99.90
61386;DHT22;47256;18.904;-99.054;2023-12-04T08:32:19;21.30;99.90
61386;DHT22;47256;18.904;-99.054;2023-12-04T08:34:47;21.30;99.90
61386;DHT22;47256;18.904;-99.054;2023-12-04T08:37:15;21.30;99.90
61386;DHT22;47256;18.904;-99.054;2023-12-04T08:39:42;21.20;99.90
61386;DHT22;47256;18.904;-99.054;2023-12-04T08:42:09;21.20;99.90
61386;DHT22;47256;18.904;-99.054;2023-12-04T08:44:36;21.20;99.90
61386;DHT22;47256;18.904;-99.054;2023-12-04T08:47:04;21.10;99.90
61386;DHT22;47256;18.904;-99.054;2023-12-04T08:49:31;21.00;99.90
61386;DHT22;47256;18.904;-99.054;2023-12-04T08:51:59;21.00;99.90
61386;DHT22;47256;18.904;-99.054;2023-12-04T08:54:27;21.00;99.90
61386;DHT22;47256;18.904;-99.054;2023-12-04T08:56:54;21.00;99.90
61386;DHT22;47256;18.904;-99.054;2023-12-04T08:59:22;21.00;99.90
61386;DHT22;47256;18.904;-99.054;2023-12-04T09:01:50;21.00;99.90
61386;DHT22;47256;18.904;-99.054;2023-12-04T09:04:18;21.00;99.90
61386;DHT22;47256;18.904;-99.054;2023-12-04T09:06:46;20.90;99.90
61386;DHT22;47256;18.904;-99.054;2023-12-04T09:09:13;20.80;99.90
61386;DHT22;47256;18.904;-99.054;2023-12-04T09:11:43;20.80;99.90
61386;DHT22;47256;18.904;-99.054;2023-12-04T09:14:10;20.90;99.90
61386;DHT22;47256;18.904;-99.054;2023-12-04T09:16:37;20.80;99.90
61386;DHT22;47256;18.904;-99.054;2023-12-04T09:19:05;20.80;99.90
61386;DHT22;47256;18.904;-99.054;2023-12-04T09:21:33;20.80;99.90
61386;DHT22;47256;18.904;-99.054;2023-12-04T09:24:01;20.80;99.90
61386;DHT22;47256;18.904;-99.054;2023-12-04T09:26:28;20.70;99.90
61386;DHT22;47256;18.904;-99.054;2023-12-04T09:28:55;20.70;99.90
61386;DHT22;47256;18.904;-99.054;2023-12-04T09:31:23;20.80;99.90
61386;DHT22;47256;18.904;-99.054;2023-12-04T09:33:51;20.80;99.90
61386;DHT22;47256;18.904;-99.054;2023-12-04T09:36:18;20.80;99.90
61386;DHT22;47256;18.904;-99.054;2023-12-04T09:38:46;20.80;99.90
61386;DHT22;47256;18.904;-99.054;2023-12-04T09:41:14;20.80;99.90
61386;DHT22;47256;18.904;-99.054;2023-12-04T09:43:43;20.90;99.90
61386;DHT22;47256;18.904;-99.054;2023-12-04T09:46:12;20.80;99.90
61386;DHT22;47256;18.904;-99.054;2023-12-04T09:48:41;20.70;99.90
61386;DHT22;47256;18.904;-99.054;2023-12-04T09:51:10;20.70;99.90
61386;DHT22;47256;18.904;-99.054;2023-12-04T09:53:39;20.70;99.90
61386;DHT22;47256;18.904;-99.054;2023-12-04T09:56:08;20.70;99.90
61386;DHT22;47256;18.904;-99.054;2023-12-04T09:58:38;20.70;99.90
61386;DHT22;47256;18.904;-99.054;2023-12-04T10:01:07;20.60;99.90
61386;DHT22;47256;18.904;-99.054;2023-12-04T10:03:35;20.60;99.90
61386;DHT22;47256;18.904;-99.054;2023-12-04T10:06:06;20.70;99.90
61386;DHT22;47256;18.904;-99.054;2023-12-04T10:08:35;20.80;99.90
61386;DHT22;47256;18.904;-99.054;2023-12-04T10:11:03;20.80;99.90
61386;DHT22;47256;18.904;-99.054;2023-12-04T10:13:30;20.80;99.90
61386;DHT22;47256;18.904;-99.054;2023-12-04T10:15:57;20.80;99.90
61386;DHT22;47256;18.904;-99.054;2023-12-04T10:18:29;20.70;99.90
61386;DHT22;47256;18.904;-99.054;2023-12-04T10:20:58;20.70;99.90
61386;DHT22;47256;18.904;-99.054;2023-12-04T10:23:42;20.70;99.90
61386;DHT22;47256;18.904;-99.054;2023-12-04T10:26:09;20.80;99.90
61386;DHT22;47256;18.904;-99.054;2023-12-04T10:28:59;20.70;99.90
61386;DHT22;47256;18.904;-99.054;2023-12-04T10:31:32;20.80;99.90
61386;DHT22;47256;18.904;-99.054;2023-12-04T10:34:04;20.80;99.90
61386;DHT22;47256;18.904;-99.054;2023-12-04T10:36:31;20.70;99.90
61386;DHT22;47256;18.904;-99.054;2023-12-04T10:39:00;20.70;99.90
61386;DHT22;47256;18.904;-99.054;2023-12-04T10:41:28;20.70;99.90
61386;DHT22;47256;18.904;-99.054;2023-12-04T10:43:56;20.70;99.90
61386;DHT22;47256;18.904;-99.054;2023-12-04T10:46:28;20.70;99.90
61386;DHT22;47256;18.904;-99.054;2023-12-04T10:48:57;20.60;99.90
61386;DHT22;47256;18.904;-99.054;2023-12-04T10:51:25;20.60;99.90
61386;DHT22;47256;18.904;-99.054;2023-12-04T10:53:54;20.50;99.90
61386;DHT22;47256;18.904;-99.054;2023-12-04T10:56:41;20.50;99.90
61386;DHT22;47256;18.904;-99.054;2023-12-04T10:59:13;20.60;99.90
61386;DHT22;47256;18.904;-99.054;2023-12-04T11:01:45;20.50;99.90
61386;DHT22;47256;18.904;-99.054;2023-12-04T11:04:17;20.50;99.90
61386;DHT22;47256;18.904;-99.054;2023-12-04T11:06:52;20.60;99.90
61386;DHT22;47256;18.904;-99.054;2023-12-04T11:09:23;20.60;99.90
61386;DHT22;47256;18.904;-99.054;2023-12-04T11:11:58;20.60;99.90
61386;DHT22;47256;18.904;-99.054;2023-12-04T11:14:31;20.60;99.90
61386;DHT22;47256;18.904;-99.054;2023-12-04T11:17:04;20.60;99.90
61386;DHT22;47256;18.904;-99.054;2023-12-04T11:20:04;20.60;99.90
61386;DHT22;47256;18.904;-99.054;2023-12-04T11:22:35;20.70;99.90
61386;DHT22;47256;18.904;-99.054;2023-12-04T11:25:06;20.50;99.90
61386;DHT22;47256;18.904;-99.054;2023-12-04T11:27:35;20.40;99.90
61386;DHT22;47256;18.904;-99.054;2023-12-04T11:30:03;20.40;99.90
61386;DHT22;47256;18.904;-99.054;2023-12-04T11:32:48;20.50;99.90
61386;DHT22;47256;18.904;-99.054;2023-12-04T11:35:16;20.60;99.90
61386;DHT22;47256;18.904;-99.054;2023-12-04T11:37:48;20.60;99.90
61386;DHT22;47256;18.904;-99.054;2023-12-04T11:40:16;20.60;99.90
61386;DHT22;47256;18.904;-99.054;2023-12-04T11:42:43;20.50;99.90
61386;DHT22;47256;18.904;-99.054;2023-12-04T11:45:19;20.40;99.90
61386;DHT22;47256;18.904;-99.054;2023-12-04T11:47:56;20.40;99.90
61386;DHT22;47256;18.904;-99.054;2023-12-04T11:50:27;20.40;99.90
61386;DHT22;47256;18.904;-99.054;2023-12-04T11:52:59;20.50;99.90
61386;DHT22;47256;18.904;-99.054;2023-12-04T11:55:30;20.50;99.90
61386;DHT22;47256;18.904;-99.054;2023-12-04T11:58:11;20.50;99.90
61386;DHT22;47256;18.904;-99.054;2023-12-04T12:00:43;20.50;99.90
61386;DHT22;47256;18.904;-99.054;2023-12-04T12:03:11;20.50;99.90
61386;DHT22;47256;18.904;-99.054;2023-12-04T12:05:42;20.50;99.90
61386;DHT22;47256;18.904;-99.054;2023-12-04T12:08:10;20.50;99.90
61386;DHT22;47256;18.904;-99.054;2023-12-04T12:10:38;20.40;99.90
61386;DHT22;47256;18.904;-99.054;2023-12-04T12:13:05;20.50;99.90
61386;DHT22;47256;18.904;-99.054;2023-12-04T12:15:33;20.50;99.90
61386;DHT22;47256;18.904;-99.054;2023-12-04T12:18:00;20.50;99.90
61386;DHT22;47256;18.904;-99.054;2023-12-04T12:20:29;20.50;99.90
61386;DHT22;47256;18.904;-99.054;2023-12-04T12:22:56;20.50;99.90
61386;DHT22;47256;18.904;-99.054;2023-12-04T12:25:24;20.40;99.90
61386;DHT22;47256;18.904;-99.054;2023-12-04T12:27:52;20.30;99.90
61386;DHT22;47256;18.904;-99.054;2023-12-04T12:30:20;20.30;99.90
61386;DHT22;47256;18.904;-99.054;2023-12-04T12:32:50;20.30;99.90
61386;DHT22;47256;18.904;-99.054;2023-12-04T12:35:18;20.30;99.90
61386;DHT22;47256;18.904;-99.054;2023-12-04T12:37:45;20.30;99.90
61386;DHT22;47256;18.904;-99.054;2023-12-04T12:40:13;20.30;99.90
61386;DHT22;47256;18.904;-99.054;2023-12-04T12:42:40;20.30;99.90
61386;DHT22;47256;18.904;-99.054;2023-12-04T12:45:11;20.30;99.90
61386;DHT22;47256;18.904;-99.054;2023-12-04T12:47:44;20.30;99.90
61386;DHT22;47256;18.904;-99.054;2023-12-04T12:50:15;20.30;99.90
61386;DHT22;47256;18.904;-99.054;2023-12-04T12:52:44;20.30;99.90
61386;DHT22;47256;18.904;-99.054;2023-12-04T12:55:11;20.30;99.90
61386;DHT22;47256;18.904;-99.054;2023-12-04T12:57:51;20.30;99.90
61386;DHT22;47256;18.904;-99.054;2023-12-04T13:00:18;20.30;99.90
61386;DHT22;47256;18.904;-99.054;2023-12-04T13:02:48;20.30;99.90
61386;DHT22;47256;18.904;-99.054;2023-12-04T13:05:15;20.30;99.90
61386;DHT22;47256;18.904;-99.054;2023-12-04T13:07:44;20.20;99.90
61386;DHT22;47256;18.904;-99.054;2023-12-04T13:10:11;20.10;99.90
61386;DHT22;47256;18.904;-99.054;2023-12-04T13:12:39;20.10;99.90
61386;DHT22;47256;18.904;-99.054;2023-12-04T13:15:07;20.10;99.90
61386;DHT22;47256;18.904;-99.054;2023-12-04T13:17:36;20.10;99.90
61386;DHT22;47256;18.904;-99.054;2023-12-04T13:20:04;20.10;99.90
61386;DHT22;47256;18.904;-99.054;2023-12-04T13:22:32;20.10;99.90
61386;DHT22;47256;18.904;-99.054;2023-12-04T13:24:59;20.00;99.90
61386;DHT22;47256;18.904;-99.054;2023-12-04T13:27:28;20.00;99.90
61386;DHT22;47256;18.904;-99.054;2023-12-04T13:29:56;19.90;99.90
61386;DHT22;47256;18.904;-99.054;2023-12-04T13:32:23;20.00;99.90
61386;DHT22;47256;18.904;-99.054;2023-12-04T13:34:51;20.10;99.90
61386;DHT22;47256;18.904;-99.054;2023-12-04T13:37:18;20.10;99.90
61386;DHT22;47256;18.904;-99.054;2023-12-04T13:39:46;20.10;99.90
61386;DHT22;47256;18.904;-99.054;2023-12-04T13:42:24;20.20;99.90
61386;DHT22;47256;18.904;-99.054;2023-12-04T13:45:11;20.30;99.90
61386;DHT22;47256;18.904;-99.054;2023-12-04T13:47:39;20.30;99.90
61386;DHT22;47256;18.904;-99.054;2023-12-04T13:50:07;20.40;99.90
61386;DHT22;47256;18.904;-99.054;2023-12-04T13:52:36;20.40;99.90
61386;DHT22;47256;18.904;-99.054;2023-12-04T13:55:06;20.40;99.90
61386;DHT22;47256;18.904;-99.054;2023-12-04T13:57:54;20.40;99.90
61386;DHT22;47256;18.904;-99.054;2023-12-04T14:00:27;20.40;99.90
61386;DHT22;47256;18.904;-99.054;2023-12-04T14:02:56;20.40;99.90
61386;DHT22;47256;18.904;-99.054;2023-12-04T14:05:34;20.50;99.90
61386;DHT22;47256;18.904;-99.054;2023-12-04T14:08:02;20.60;99.90
61386;DHT22;47256;18.904;-99.054;2023-12-04T14:10:30;20.60;99.90
61386;DHT22;47256;18.904;-99.054;2023-12-04T14:13:02;20.70;99.90
61386;DHT22;47256;18.904;-99.054;2023-12-04T14:15:29;20.70;99.90
61386;DHT22;47256;18.904;-99.054;2023-12-04T14:17:57;20.80;99.90
61386;DHT22;47256;18.904;-99.054;2023-12-04T14:20:24;20.90;99.90
61386;DHT22;47256;18.904;-99.054;2023-12-04T14:22:53;20.90;99.90
61386;DHT22;47256;18.904;-99.054;2023-12-04T14:25:20;21.00;99.90
61386;DHT22;47256;18.904;-99.054;2023-12-04T14:27:47;21.10;99.90
61386;DHT22;47256;18.904;-99.054;2023-12-04T14:30:14;21.10;99.90
61386;DHT22;47256;18.904;-99.054;2023-12-04T14:32:42;21.10;99.90
61386;DHT22;47256;18.904;-99.054;2023-12-04T14:35:09;21.20;99.90
61386;DHT22;47256;18.904;-99.054;2023-12-04T14:37:37;21.30;99.90
61386;DHT22;47256;18.904;-99.054;2023-12-04T14:40:05;21.30;99.90
61386;DHT22;47256;18.904;-99.054;2023-12-04T14:42:32;21.40;99.90
61386;DHT22;47256;18.904;-99.054;2023-12-04T14:44:59;21.40;99.90
61386;DHT22;47256;18.904;-99.054;2023-12-04T14:47:27;21.40;99.90
61386;DHT22;47256;18.904;-99.054;2023-12-04T14:49:55;21.50;99.90
61386;DHT22;47256;18.904;-99.054;2023-12-04T14:52:24;21.50;99.90
61386;DHT22;47256;18.904;-99.054;2023-12-04T14:54:55;21.60;99.90
61386;DHT22;47256;18.904;-99.054;2023-12-04T14:57:35;21.70;99.90
61386;DHT22;47256;18.904;-99.054;2023-12-04T15:00:09;21.70;99.90
61386;DHT22;47256;18.904;-99.054;2023-12-04T15:02:56;21.80;99.90
61386;DHT22;47256;18.904;-99.054;2023-12-04T15:05:56;21.90;99.90
61386;DHT22;47256;18.904;-99.054;2023-12-04T15:08:24;21.90;99.90
61386;DHT22;47256;18.904;-99.054;2023-12-04T15:11:10;22.00;99.90
61386;DHT22;47256;18.904;-99.054;2023-12-04T15:13:38;22.00;99.90